sensor_id;sensor_type;location;lat;lon;timestamp;noise_LAeq;noise_LA_min;noise_LA_max;noise_LA01;noise_LA95
67320;Laerm;57665;51.436;5.978;2024-01-07T00:00:04;40.73;39.39;44.60;;
67320;Laerm;57665;51.436;5.978;2024-01-07T00:00:15;41.09;39.47;46.01;;
67320;Laerm;57665;51.436;5.978;2024-01-07T00:00:26;40.95;39.33;44.09;;
67320;Laerm;57665;51.436;5.978;2024-01-07T00:00:36;42.07;40.17;44.57;;
67320;Laerm;57665;51.436;5.978;2024-01-07T00:00:47;42.13;39.86;45.43;;
67320;Laerm;57665;51.436;5.978;2024-01-07T00:00:57;41.65;39.38;45.34;;
67320;Laerm;57665;51.436;5.978;2024-01-07T00:01:08;41.13;39.46;43.54;;
67320;Laerm;57665;51.436;5.978;2024-01-07T00:01:19;41.00;39.28;43.59;;
67320;Laerm;57665;51.436;5.978;2024-01-07T00:01:30;41.06;39.52;43.03;;
67320;Laerm;57665;51.436;5.978;2024-01-07T00:01:46;42.06;39.88;45.23;;
67320;Laerm;57665;51.436;5.978;2024-01-07T00:01:58;41.65;39.76;45.48;;
67320;Laerm;57665;51.436;5.978;2024-01-07T00:02:08;41.41;39.83;43.52;;
67320;Laerm;57665;51.436;5.978;2024-01-07T00:02:19;41.68;39.29;45.88;;
67320;Laerm;57665;51.436;5.978;2024-01-07T00:02:29;41.84;39.06;44.34;;
67320;Laerm;57665;51.436;5.978;2024-01-07T00:02:40;41.52;39.26;44.57;;
67320;Laerm;57665;51.436;5.978;2024-01-07T00:02:50;41.04;39.48;43.18;;
67320;Laerm;57665;51.436;5.978;2024-01-07T00:03:01;41.27;39.55;43.21;;
67320;Laerm;57665;51.436;5.978;2024-01-07T00:03:11;42.41;39.59;45.94;;
67320;Laerm;57665;51.436;5.978;2024-01-07T00:03:21;40.84;39.58;42.82;;
67320;Laerm;57665;51.436;5.978;2024-01-07T00:03:32;40.97;39.64;42.72;;
67320;Laerm;57665;51.436;5.978;2024-01-07T00:03:42;40.95;39.67;42.98;;
67320;Laerm;57665;51.436;5.978;2024-01-07T00:03:52;40.97;39.58;42.74;;
67320;Laerm;57665;51.436;5.978;2024-01-07T00:04:04;40.91;39.64;42.56;;
67320;Laerm;57665;51.436;5.978;2024-01-07T00:04:18;40.84;39.26;42.96;;
67320;Laerm;57665;51.436;5.978;2024-01-07T00:04:28;41.25;39.73;43.17;;
67320;Laerm;57665;51.436;5.978;2024-01-07T00:04:39;41.31;39.86;43.21;;
67320;Laerm;57665;51.436;5.978;2024-01-07T00:05:02;43.68;39.48;53.09;;
67320;Laerm;57665;51.436;5.978;2024-01-07T00:05:12;40.92;39.38;42.52;;
67320;Laerm;57665;51.436;5.978;2024-01-07T00:05:23;40.70;39.40;42.66;;
67320;Laerm;57665;51.436;5.978;2024-01-07T00:05:35;41.20;39.38;43.33;;
67320;Laerm;57665;51.436;5.978;2024-01-07T00:05:45;41.22;39.58;45.00;;
67320;Laerm;57665;51.436;5.978;2024-01-07T00:05:57;40.97;39.61;42.97;;
67320;Laerm;57665;51.436;5.978;2024-01-07T00:06:07;40.76;39.41;42.75;;
67320;Laerm;57665;51.436;5.978;2024-01-07T00:06:17;40.93;39.48;42.69;;
67320;Laerm;57665;51.436;5.978;2024-01-07T00:06:27;41.99;39.67;49.11;;
67320;Laerm;57665;51.436;5.978;2024-01-07T00:06:38;41.37;39.67;43.36;;
67320;Laerm;57665;51.436;5.978;2024-01-07T00:06:48;40.98;39.75;42.70;;
67320;Laerm;57665;51.436;5.978;2024-01-07T00:06:58;41.00;39.64;42.72;;
67320;Laerm;57665;51.436;5.978;2024-01-07T00:07:08;40.92;39.20;42.45;;
67320;Laerm;57665;51.436;5.978;2024-01-07T00:07:21;40.63;39.01;42.25;;
67320;Laerm;57665;51.436;5.978;2024-01-07T00:07:32;40.77;38.89;42.46;;
67320;Laerm;57665;51.436;5.978;2024-01-07T00:07:42;41.03;39.60;43.19;;
67320;Laerm;57665;51.436;5.978;2024-01-07T00:07:53;40.86;39.44;42.48;;
67320;Laerm;57665;51.436;5.978;2024-01-07T00:08:05;40.68;39.33;42.29;;
67320;Laerm;57665;51.436;5.978;2024-01-07T00:08:15;40.62;39.23;42.06;;
67320;Laerm;57665;51.436;5.978;2024-01-07T00:08:26;40.54;39.28;42.23;;
67320;Laerm;57665;51.436;5.978;2024-01-07T00:08:36;40.53;39.03;41.88;;
67320;Laerm;57665;51.436;5.978;2024-01-07T00:08:46;40.52;39.07;42.06;;
67320;Laerm;57665;51.436;5.978;2024-01-07T00:08:57;40.79;39.34;42.15;;
67320;Laerm;57665;51.436;5.978;2024-01-07T00:09:07;41.73;39.60;44.98;;
67320;Laerm;57665;51.436;5.978;2024-01-07T00:09:18;40.73;39.42;42.30;;
67320;Laerm;57665;51.436;5.978;2024-01-07T00:09:28;41.86;39.77;44.85;;
67320;Laerm;57665;51.436;5.978;2024-01-07T00:09:40;42.93;39.68;48.18;;
67320;Laerm;57665;51.436;5.978;2024-01-07T00:09:50;40.78;39.54;42.58;;
67320;Laerm;57665;51.436;5.978;2024-01-07T00:10:01;40.74;39.34;42.46;;
67320;Laerm;57665;51.436;5.978;2024-01-07T00:10:11;41.17;38.44;44.15;;
67320;Laerm;57665;51.436;5.978;2024-01-07T00:10:22;41.38;39.64;44.99;;
67320;Laerm;57665;51.436;5.978;2024-01-07T00:10:32;41.01;39.73;42.83;;
67320;Laerm;57665;51.436;5.978;2024-01-07T00:10:42;41.09;39.70;42.97;;
67320;Laerm;57665;51.436;5.978;2024-01-07T00:10:52;41.43;39.56;43.19;;
67320;Laerm;57665;51.436;5.978;2024-01-07T00:11:03;41.01;39.44;42.84;;
67320;Laerm;57665;51.436;5.978;2024-01-07T00:11:13;41.25;39.59;43.66;;
67320;Laerm;57665;51.436;5.978;2024-01-07T00:11:32;40.84;39.22;42.56;;
67320;Laerm;57665;51.436;5.978;2024-01-07T00:11:43;40.93;39.32;42.88;;
67320;Laerm;57665;51.436;5.978;2024-01-07T00:11:53;42.21;40.32;44.24;;
67320;Laerm;57665;51.436;5.978;2024-01-07T00:12:03;43.76;41.41;46.88;;
67320;Laerm;57665;51.436;5.978;2024-01-07T00:12:14;43.76;41.76;45.93;;
67320;Laerm;57665;51.436;5.978;2024-01-07T00:12:24;43.88;41.92;46.06;;
67320;Laerm;57665;51.436;5.978;2024-01-07T00:12:35;48.12;42.25;55.04;;
67320;Laerm;57665;51.436;5.978;2024-01-07T00:12:45;49.82;40.29;56.68;;
67320;Laerm;57665;51.436;5.978;2024-01-07T00:12:55;44.60;40.61;49.56;;
67320;Laerm;57665;51.436;5.978;2024-01-07T00:13:06;41.34;39.74;43.29;;
67320;Laerm;57665;51.436;5.978;2024-01-07T00:13:16;40.93;39.54;42.71;;
67320;Laerm;57665;51.436;5.978;2024-01-07T00:13:27;40.81;39.07;42.60;;
67320;Laerm;57665;51.436;5.978;2024-01-07T00:13:37;40.80;39.35;42.63;;
67320;Laerm;57665;51.436;5.978;2024-01-07T00:13:47;40.50;38.85;42.17;;
67320;Laerm;57665;51.436;5.978;2024-01-07T00:13:58;40.67;39.35;42.22;;
67320;Laerm;57665;51.436;5.978;2024-01-07T00:14:08;40.49;39.16;41.70;;
67320;Laerm;57665;51.436;5.978;2024-01-07T00:14:21;40.41;39.01;41.50;;
67320;Laerm;57665;51.436;5.978;2024-01-07T00:14:32;40.36;38.89;41.80;;
67320;Laerm;57665;51.436;5.978;2024-01-07T00:14:42;40.43;39.16;41.99;;
67320;Laerm;57665;51.436;5.978;2024-01-07T00:14:52;40.44;39.18;41.67;;
67320;Laerm;57665;51.436;5.978;2024-01-07T00:15:03;40.60;39.17;42.03;;
67320;Laerm;57665;51.436;5.978;2024-01-07T00:15:16;40.47;39.34;42.02;;
67320;Laerm;57665;51.436;5.978;2024-01-07T00:15:26;40.46;39.34;41.85;;
67320;Laerm;57665;51.436;5.978;2024-01-07T00:15:39;40.57;39.12;41.86;;
67320;Laerm;57665;51.436;5.978;2024-01-07T00:15:51;40.55;38.92;41.74;;
67320;Laerm;57665;51.436;5.978;2024-01-07T00:16:06;40.30;38.94;41.84;;
67320;Laerm;57665;51.436;5.978;2024-01-07T00:16:17;40.60;39.27;42.71;;
67320;Laerm;57665;51.436;5.978;2024-01-07T00:16:27;40.60;38.97;42.12;;
67320;Laerm;57665;51.436;5.978;2024-01-07T00:16:39;40.54;39.40;42.05;;
67320;Laerm;57665;51.436;5.978;2024-01-07T00:16:50;40.43;39.05;41.93;;
67320;Laerm;57665;51.436;5.978;2024-01-07T00:17:00;40.37;39.03;41.98;;
67320;Laerm;57665;51.436;5.978;2024-01-07T00:17:11;40.35;38.77;41.29;;
67320;Laerm;57665;51.436;5.978;2024-01-07T00:17:21;40.45;39.33;41.97;;
67320;Laerm;57665;51.436;5.978;2024-01-07T00:17:31;40.32;39.21;41.58;;
67320;Laerm;57665;51.436;5.978;2024-01-07T00:17:41;40.22;38.85;41.55;;
67320;Laerm;57665;51.436;5.978;2024-01-07T00:17:54;40.46;39.04;42.26;;
67320;Laerm;57665;51.436;5.978;2024-01-07T00:18:05;40.42;39.41;41.59;;
67320;Laerm;57665;51.436;5.978;2024-01-07T00:18:15;40.38;39.14;41.64;;
67320;Laerm;57665;51.436;5.978;2024-01-07T00:18:25;40.37;39.12;41.62;;
67320;Laerm;57665;51.436;5.978;2024-01-07T00:18:37;40.41;38.85;42.17;;
67320;Laerm;57665;51.436;5.978;2024-01-07T00:18:47;40.38;39.11;41.60;;
67320;Laerm;57665;51.436;5.978;2024-01-07T00:18:57;40.39;39.09;41.62;;
67320;Laerm;57665;51.436;5.978;2024-01-07T00:19:18;40.34;38.90;41.94;;
67320;Laerm;57665;51.436;5.978;2024-01-07T00:19:28;40.40;39.27;41.83;;
67320;Laerm;57665;51.436;5.978;2024-01-07T00:19:41;40.33;38.70;41.63;;
67320;Laerm;57665;51.436;5.978;2024-01-07T00:19:51;40.36;39.03;41.71;;
67320;Laerm;57665;51.436;5.978;2024-01-07T00:20:02;40.30;38.72;41.67;;
67320;Laerm;57665;51.436;5.978;2024-01-07T00:20:12;40.16;38.87;41.49;;
67320;Laerm;57665;51.436;5.978;2024-01-07T00:20:22;40.30;38.95;41.61;;
67320;Laerm;57665;51.436;5.978;2024-01-07T00:20:33;40.31;38.98;41.65;;
67320;Laerm;57665;51.436;5.978;2024-01-07T00:20:43;40.47;39.18;41.60;;
67320;Laerm;57665;51.436;5.978;2024-01-07T00:20:53;40.28;39.07;41.30;;
67320;Laerm;57665;51.436;5.978;2024-01-07T00:21:03;40.21;38.94;41.65;;
67320;Laerm;57665;51.436;5.978;2024-01-07T00:21:14;40.23;39.13;41.38;;
67320;Laerm;57665;51.436;5.978;2024-01-07T00:21:24;40.63;39.36;42.38;;
67320;Laerm;57665;51.436;5.978;2024-01-07T00:21:34;41.19;39.29;43.50;;
67320;Laerm;57665;51.436;5.978;2024-01-07T00:21:44;40.43;39.11;41.78;;
67320;Laerm;57665;51.436;5.978;2024-01-07T00:21:55;40.28;39.16;41.56;;
67320;Laerm;57665;51.436;5.978;2024-01-07T00:22:05;40.40;38.95;42.21;;
67320;Laerm;57665;51.436;5.978;2024-01-07T00:22:18;40.29;38.92;41.71;;
67320;Laerm;57665;51.436;5.978;2024-01-07T00:22:28;40.38;39.33;41.65;;
67320;Laerm;57665;51.436;5.978;2024-01-07T00:22:39;40.66;39.54;42.23;;
67320;Laerm;57665;51.436;5.978;2024-01-07T00:22:49;40.63;39.17;42.01;;
67320;Laerm;57665;51.436;5.978;2024-01-07T00:22:59;40.40;39.03;41.88;;
67320;Laerm;57665;51.436;5.978;2024-01-07T00:23:09;40.46;39.40;42.29;;
67320;Laerm;57665;51.436;5.978;2024-01-07T00:23:19;40.47;38.86;42.77;;
67320;Laerm;57665;51.436;5.978;2024-01-07T00:23:30;40.34;39.14;41.64;;
67320;Laerm;57665;51.436;5.978;2024-01-07T00:23:42;40.38;39.00;41.60;;
67320;Laerm;57665;51.436;5.978;2024-01-07T00:23:52;40.48;38.83;42.70;;
67320;Laerm;57665;51.436;5.978;2024-01-07T00:24:02;40.35;39.29;41.76;;
67320;Laerm;57665;51.436;5.978;2024-01-07T00:24:12;40.49;38.79;41.96;;
67320;Laerm;57665;51.436;5.978;2024-01-07T00:24:24;40.36;39.00;41.70;;
67320;Laerm;57665;51.436;5.978;2024-01-07T00:24:35;40.39;39.27;41.61;;
67320;Laerm;57665;51.436;5.978;2024-01-07T00:24:47;40.51;39.28;42.76;;
67320;Laerm;57665;51.436;5.978;2024-01-07T00:24:57;40.40;39.02;41.93;;
67320;Laerm;57665;51.436;5.978;2024-01-07T00:25:09;40.42;39.20;41.59;;
67320;Laerm;57665;51.436;5.978;2024-01-07T00:25:19;40.55;39.31;41.83;;
67320;Laerm;57665;51.436;5.978;2024-01-07T00:25:29;41.08;39.27;44.93;;
67320;Laerm;57665;51.436;5.978;2024-01-07T00:25:42;40.27;39.02;41.95;;
67320;Laerm;57665;51.436;5.978;2024-01-07T00:25:54;40.34;39.21;41.59;;
67320;Laerm;57665;51.436;5.978;2024-01-07T00:26:05;40.19;38.70;41.50;;
67320;Laerm;57665;51.436;5.978;2024-01-07T00:26:16;40.41;38.95;41.60;;
67320;Laerm;57665;51.436;5.978;2024-01-07T00:26:26;43.81;39.33;52.45;;
67320;Laerm;57665;51.436;5.978;2024-01-07T00:26:37;40.68;38.76;43.58;;
67320;Laerm;57665;51.436;5.978;2024-01-07T00:26:47;40.37;38.94;41.50;;
67320;Laerm;57665;51.436;5.978;2024-01-07T00:26:57;43.58;39.26;54.33;;
67320;Laerm;57665;51.436;5.978;2024-01-07T00:27:08;43.99;39.11;54.78;;
67320;Laerm;57665;51.436;5.978;2024-01-07T00:27:19;41.06;39.51;42.93;;
67320;Laerm;57665;51.436;5.978;2024-01-07T00:27:29;41.15;39.30;43.94;;
67320;Laerm;57665;51.436;5.978;2024-01-07T00:27:39;40.74;39.22;42.16;;
67320;Laerm;57665;51.436;5.978;2024-01-07T00:28:11;40.71;38.95;43.23;;
67320;Laerm;57665;51.436;5.978;2024-01-07T00:28:25;41.83;39.43;46.24;;
67320;Laerm;57665;51.436;5.978;2024-01-07T00:28:37;41.08;39.34;44.76;;
67320;Laerm;57665;51.436;5.978;2024-01-07T00:28:47;41.84;39.57;44.77;;
67320;Laerm;57665;51.436;5.978;2024-01-07T00:28:57;40.53;39.38;41.77;;
67320;Laerm;57665;51.436;5.978;2024-01-07T00:29:08;40.27;39.15;41.63;;
67320;Laerm;57665;51.436;5.978;2024-01-07T00:29:18;40.26;38.96;41.61;;
67320;Laerm;57665;51.436;5.978;2024-01-07T00:29:28;40.30;38.92;41.72;;
67320;Laerm;57665;51.436;5.978;2024-01-07T00:29:38;40.36;39.27;41.99;;
67320;Laerm;57665;51.436;5.978;2024-01-07T00:29:49;40.25;38.71;41.54;;
67320;Laerm;57665;51.436;5.978;2024-01-07T00:29:59;40.30;39.02;41.66;;
67320;Laerm;57665;51.436;5.978;2024-01-07T00:30:09;40.37;39.20;41.59;;
67320;Laerm;57665;51.436;5.978;2024-01-07T00:30:20;40.26;38.95;41.53;;
67320;Laerm;57665;51.436;5.978;2024-01-07T00:30:30;40.25;39.15;41.49;;
67320;Laerm;57665;51.436;5.978;2024-01-07T00:30:40;40.38;39.00;41.77;;
67320;Laerm;57665;51.436;5.978;2024-01-07T00:30:50;40.41;39.11;41.67;;
67320;Laerm;57665;51.436;5.978;2024-01-07T00:31:02;40.89;39.22;43.44;;
67320;Laerm;57665;51.436;5.978;2024-01-07T00:31:12;40.67;39.18;44.61;;
67320;Laerm;57665;51.436;5.978;2024-01-07T00:31:24;40.46;39.19;41.77;;
67320;Laerm;57665;51.436;5.978;2024-01-07T00:31:34;40.57;39.40;41.96;;
67320;Laerm;57665;51.436;5.978;2024-01-07T00:31:44;40.38;38.99;41.49;;
67320;Laerm;57665;51.436;5.978;2024-01-07T00:31:55;40.49;39.31;42.17;;
67320;Laerm;57665;51.436;5.978;2024-01-07T00:32:05;40.69;39.45;42.20;;
67320;Laerm;57665;51.436;5.978;2024-01-07T00:32:15;40.90;39.46;42.44;;
67320;Laerm;57665;51.436;5.978;2024-01-07T00:32:25;42.88;40.01;47.03;;
67320;Laerm;57665;51.436;5.978;2024-01-07T00:32:39;42.98;39.91;56.38;;
67320;Laerm;57665;51.436;5.978;2024-01-07T00:32:49;41.55;39.25;53.87;;
67320;Laerm;57665;51.436;5.978;2024-01-07T00:33:01;45.74;39.50;57.29;;
67320;Laerm;57665;51.436;5.978;2024-01-07T00:33:11;40.56;39.11;41.69;;
67320;Laerm;57665;51.436;5.978;2024-01-07T00:33:21;40.50;39.07;41.76;;
67320;Laerm;57665;51.436;5.978;2024-01-07T00:33:32;41.84;39.16;51.23;;
67320;Laerm;57665;51.436;5.978;2024-01-07T00:33:42;41.59;39.70;44.11;;
67320;Laerm;57665;51.436;5.978;2024-01-07T00:33:52;40.62;39.52;42.10;;
67320;Laerm;57665;51.436;5.978;2024-01-07T00:34:04;40.97;39.46;42.52;;
67320;Laerm;57665;51.436;5.978;2024-01-07T00:34:14;40.41;38.79;42.26;;
67320;Laerm;57665;51.436;5.978;2024-01-07T00:34:24;40.62;39.27;42.49;;
67320;Laerm;57665;51.436;5.978;2024-01-07T00:34:35;40.73;39.34;42.70;;
67320;Laerm;57665;51.436;5.978;2024-01-07T00:34:45;40.79;39.50;41.91;;
67320;Laerm;57665;51.436;5.978;2024-01-07T00:34:55;40.91;39.52;46.42;;
67320;Laerm;57665;51.436;5.978;2024-01-07T00:35:07;41.30;39.81;43.19;;
67320;Laerm;57665;51.436;5.978;2024-01-07T00:35:17;48.83;40.91;62.40;;
67320;Laerm;57665;51.436;5.978;2024-01-07T00:35:28;43.63;39.85;52.40;;
67320;Laerm;57665;51.436;5.978;2024-01-07T00:35:38;40.80;39.21;43.21;;
67320;Laerm;57665;51.436;5.978;2024-01-07T00:35:49;42.32;39.75;45.30;;
67320;Laerm;57665;51.436;5.978;2024-01-07T00:36:01;40.66;39.39;42.00;;
67320;Laerm;57665;51.436;5.978;2024-01-07T00:36:12;40.32;39.10;41.69;;
67320;Laerm;57665;51.436;5.978;2024-01-07T00:36:22;40.37;39.34;41.37;;
67320;Laerm;57665;51.436;5.978;2024-01-07T00:36:32;40.36;39.05;41.98;;
67320;Laerm;57665;51.436;5.978;2024-01-07T00:36:43;40.44;39.16;42.13;;
67320;Laerm;57665;51.436;5.978;2024-01-07T00:36:53;40.56;39.00;41.99;;
67320;Laerm;57665;51.436;5.978;2024-01-07T00:37:03;40.61;39.63;42.35;;
67320;Laerm;57665;51.436;5.978;2024-01-07T00:37:14;40.61;39.03;42.39;;
67320;Laerm;57665;51.436;5.978;2024-01-07T00:37:24;40.53;39.30;41.97;;
67320;Laerm;57665;51.436;5.978;2024-01-07T00:37:34;40.60;39.15;42.27;;
67320;Laerm;57665;51.436;5.978;2024-01-07T00:37:45;43.59;39.30;54.93;;
67320;Laerm;57665;51.436;5.978;2024-01-07T00:37:55;42.09;39.32;49.05;;
67320;Laerm;57665;51.436;5.978;2024-01-07T00:38:06;41.87;39.70;49.31;;
67320;Laerm;57665;51.436;5.978;2024-01-07T00:38:16;42.23;39.54;48.81;;
67320;Laerm;57665;51.436;5.978;2024-01-07T00:38:30;42.48;39.42;50.63;;
67320;Laerm;57665;51.436;5.978;2024-01-07T00:38:40;40.87;39.43;43.84;;
67320;Laerm;57665;51.436;5.978;2024-01-07T00:38:50;42.04;39.69;45.13;;
67320;Laerm;57665;51.436;5.978;2024-01-07T00:39:02;40.70;39.36;41.85;;
67320;Laerm;57665;51.436;5.978;2024-01-07T00:39:12;40.63;39.16;42.18;;
67320;Laerm;57665;51.436;5.978;2024-01-07T00:39:23;40.90;39.19;43.03;;
67320;Laerm;57665;51.436;5.978;2024-01-07T00:39:33;40.67;39.26;41.80;;
67320;Laerm;57665;51.436;5.978;2024-01-07T00:39:43;41.08;39.68;42.85;;
67320;Laerm;57665;51.436;5.978;2024-01-07T00:39:55;42.09;39.67;51.75;;
67320;Laerm;57665;51.436;5.978;2024-01-07T00:40:06;42.38;39.82;49.70;;
67320;Laerm;57665;51.436;5.978;2024-01-07T00:40:16;42.99;40.85;45.20;;
67320;Laerm;57665;51.436;5.978;2024-01-07T00:40:26;42.55;40.27;45.60;;
67320;Laerm;57665;51.436;5.978;2024-01-07T00:40:40;43.37;41.14;46.24;;
67320;Laerm;57665;51.436;5.978;2024-01-07T00:40:50;44.04;39.77;52.31;;
67320;Laerm;57665;51.436;5.978;2024-01-07T00:41:00;47.77;39.76;62.94;;
67320;Laerm;57665;51.436;5.978;2024-01-07T00:41:10;41.21;39.34;46.45;;
67320;Laerm;57665;51.436;5.978;2024-01-07T00:41:21;42.65;39.12;59.09;;
67320;Laerm;57665;51.436;5.978;2024-01-07T00:41:31;41.18;39.49;50.91;;
67320;Laerm;57665;51.436;5.978;2024-01-07T00:41:41;42.14;39.22;49.73;;
67320;Laerm;57665;51.436;5.978;2024-01-07T00:41:51;40.99;39.07;44.48;;
67320;Laerm;57665;51.436;5.978;2024-01-07T00:42:02;41.80;39.54;48.99;;
67320;Laerm;57665;51.436;5.978;2024-01-07T00:42:12;43.52;39.28;57.95;;
67320;Laerm;57665;51.436;5.978;2024-01-07T00:42:22;40.77;38.74;44.54;;
67320;Laerm;57665;51.436;5.978;2024-01-07T00:42:32;40.21;38.93;41.49;;
67320;Laerm;57665;51.436;5.978;2024-01-07T00:42:42;40.52;39.34;42.24;;
67320;Laerm;57665;51.436;5.978;2024-01-07T00:42:53;40.71;39.51;42.55;;
67320;Laerm;57665;51.436;5.978;2024-01-07T00:43:03;40.42;39.22;41.97;;
67320;Laerm;57665;51.436;5.978;2024-01-07T00:43:13;40.43;39.27;41.72;;
67320;Laerm;57665;51.436;5.978;2024-01-07T00:43:24;40.43;39.01;42.56;;
67320;Laerm;57665;51.436;5.978;2024-01-07T00:43:34;40.96;38.86;45.49;;
67320;Laerm;57665;51.436;5.978;2024-01-07T00:43:47;40.84;38.87;43.61;;
67320;Laerm;57665;51.436;5.978;2024-01-07T00:43:57;41.33;39.10;50.57;;
67320;Laerm;57665;51.436;5.978;2024-01-07T00:44:08;40.45;38.57;44.02;;
67320;Laerm;57665;51.436;5.978;2024-01-07T00:44:18;40.28;39.09;44.80;;
67320;Laerm;57665;51.436;5.978;2024-01-07T00:44:28;40.25;38.96;42.36;;
67320;Laerm;57665;51.436;5.978;2024-01-07T00:44:38;40.36;38.79;41.61;;
67320;Laerm;57665;51.436;5.978;2024-01-07T00:44:49;40.48;39.26;43.44;;
67320;Laerm;57665;51.436;5.978;2024-01-07T00:44:59;40.62;39.04;43.43;;
67320;Laerm;57665;51.436;5.978;2024-01-07T00:45:09;40.32;39.03;41.56;;
67320;Laerm;57665;51.436;5.978;2024-01-07T00:45:20;40.29;39.16;41.51;;
67320;Laerm;57665;51.436;5.978;2024-01-07T00:45:31;40.57;39.35;42.21;;
67320;Laerm;57665;51.436;5.978;2024-01-07T00:45:43;40.33;39.17;41.82;;
67320;Laerm;57665;51.436;5.978;2024-01-07T00:45:56;40.20;39.04;41.45;;
67320;Laerm;57665;51.436;5.978;2024-01-07T00:46:07;40.32;39.02;41.83;;
67320;Laerm;57665;51.436;5.978;2024-01-07T00:46:17;40.35;39.04;41.73;;
67320;Laerm;57665;51.436;5.978;2024-01-07T00:46:28;40.52;38.89;42.15;;
67320;Laerm;57665;51.436;5.978;2024-01-07T00:46:38;43.07;39.81;50.67;;
67320;Laerm;57665;51.436;5.978;2024-01-07T00:46:48;40.51;38.98;42.32;;
67320;Laerm;57665;51.436;5.978;2024-01-07T00:47:02;41.35;39.49;44.50;;
67320;Laerm;57665;51.436;5.978;2024-01-07T00:47:12;40.70;39.22;45.51;;
67320;Laerm;57665;51.436;5.978;2024-01-07T00:47:22;40.19;38.91;41.81;;
67320;Laerm;57665;51.436;5.978;2024-01-07T00:47:33;40.30;39.09;44.07;;
67320;Laerm;57665;51.436;5.978;2024-01-07T00:47:44;40.81;39.22;52.60;;
67320;Laerm;57665;51.436;5.978;2024-01-07T00:47:55;40.29;38.76;41.73;;
67320;Laerm;57665;51.436;5.978;2024-01-07T00:48:05;40.32;39.15;41.86;;
67320;Laerm;57665;51.436;5.978;2024-01-07T00:48:15;40.30;38.87;42.03;;
67320;Laerm;57665;51.436;5.978;2024-01-07T00:48:27;40.20;39.24;43.45;;
67320;Laerm;57665;51.436;5.978;2024-01-07T00:48:39;40.18;38.90;41.46;;
67320;Laerm;57665;51.436;5.978;2024-01-07T00:48:49;40.12;38.78;41.52;;
67320;Laerm;57665;51.436;5.978;2024-01-07T00:48:59;38.74;37.38;39.99;;
67320;Laerm;57665;51.436;5.978;2024-01-07T00:49:11;38.56;37.47;39.29;;
67320;Laerm;57665;51.436;5.978;2024-01-07T00:49:21;38.68;37.70;39.87;;
67320;Laerm;57665;51.436;5.978;2024-01-07T00:49:31;38.61;37.37;39.49;;
67320;Laerm;57665;51.436;5.978;2024-01-07T00:49:41;38.54;37.49;39.38;;
67320;Laerm;57665;51.436;5.978;2024-01-07T00:49:52;38.49;37.47;39.33;;
67320;Laerm;57665;51.436;5.978;2024-01-07T00:50:02;38.62;37.27;39.87;;
67320;Laerm;57665;51.436;5.978;2024-01-07T00:50:15;38.58;37.65;39.48;;
67320;Laerm;57665;51.436;5.978;2024-01-07T00:50:25;38.57;37.09;39.58;;
67320;Laerm;57665;51.436;5.978;2024-01-07T00:50:35;38.69;37.46;39.82;;
67320;Laerm;57665;51.436;5.978;2024-01-07T00:50:54;38.61;37.51;39.70;;
67320;Laerm;57665;51.436;5.978;2024-01-07T00:51:05;38.55;37.60;39.51;;
67320;Laerm;57665;51.436;5.978;2024-01-07T00:51:15;38.58;37.55;39.64;;
67320;Laerm;57665;51.436;5.978;2024-01-07T00:51:25;38.54;37.39;39.56;;
67320;Laerm;57665;51.436;5.978;2024-01-07T00:51:36;38.59;37.53;39.60;;
67320;Laerm;57665;51.436;5.978;2024-01-07T00:51:46;38.42;37.28;39.35;;
67320;Laerm;57665;51.436;5.978;2024-01-07T00:51:56;38.71;37.70;41.50;;
67320;Laerm;57665;51.436;5.978;2024-01-07T00:52:06;38.74;37.60;39.58;;
67320;Laerm;57665;51.436;5.978;2024-01-07T00:52:17;38.69;37.62;39.85;;
67320;Laerm;57665;51.436;5.978;2024-01-07T00:52:27;38.90;37.73;40.58;;
67320;Laerm;57665;51.436;5.978;2024-01-07T00:52:37;41.75;38.14;46.54;;
67320;Laerm;57665;51.436;5.978;2024-01-07T00:52:50;38.75;37.80;39.81;;
67320;Laerm;57665;51.436;5.978;2024-01-07T00:53:03;38.55;37.75;39.49;;
67320;Laerm;57665;51.436;5.978;2024-01-07T00:53:13;38.59;37.51;39.81;;
67320;Laerm;57665;51.436;5.978;2024-01-07T00:53:23;38.68;37.66;40.05;;
67320;Laerm;57665;51.436;5.978;2024-01-07T00:53:33;38.58;37.62;39.58;;
67320;Laerm;57665;51.436;5.978;2024-01-07T00:53:43;38.56;37.66;39.42;;
67320;Laerm;57665;51.436;5.978;2024-01-07T00:53:54;38.57;37.36;39.48;;
67320;Laerm;57665;51.436;5.978;2024-01-07T00:54:07;38.66;37.52;39.61;;
67320;Laerm;57665;51.436;5.978;2024-01-07T00:54:17;39.73;38.04;42.26;;
67320;Laerm;57665;51.436;5.978;2024-01-07T00:54:46;39.31;37.39;43.91;;
67320;Laerm;57665;51.436;5.978;2024-01-07T00:54:57;38.49;37.54;39.49;;
67320;Laerm;57665;51.436;5.978;2024-01-07T00:55:07;38.68;37.63;39.89;;
67320;Laerm;57665;51.436;5.978;2024-01-07T00:55:17;38.63;37.45;39.82;;
67320;Laerm;57665;51.436;5.978;2024-01-07T00:55:27;38.48;37.52;39.39;;
67320;Laerm;57665;51.436;5.978;2024-01-07T00:55:38;38.41;37.45;39.59;;
67320;Laerm;57665;51.436;5.978;2024-01-07T00:55:48;38.56;37.57;39.74;;
67320;Laerm;57665;51.436;5.978;2024-01-07T00:55:58;38.61;37.50;40.00;;
67320;Laerm;57665;51.436;5.978;2024-01-07T00:56:08;38.65;37.39;40.21;;
67320;Laerm;57665;51.436;5.978;2024-01-07T00:56:19;38.72;37.66;39.82;;
67320;Laerm;57665;51.436;5.978;2024-01-07T00:56:29;38.52;37.71;39.53;;
67320;Laerm;57665;51.436;5.978;2024-01-07T00:56:39;38.84;37.50;44.26;;
67320;Laerm;57665;51.436;5.978;2024-01-07T00:56:50;38.58;37.36;39.91;;
67320;Laerm;57665;51.436;5.978;2024-01-07T00:57:00;38.68;37.45;39.84;;
67320;Laerm;57665;51.436;5.978;2024-01-07T00:57:11;38.61;37.53;39.81;;
67320;Laerm;57665;51.436;5.978;2024-01-07T00:57:22;38.53;37.27;39.43;;
67320;Laerm;57665;51.436;5.978;2024-01-07T00:57:32;38.50;37.44;39.37;;
67320;Laerm;57665;51.436;5.978;2024-01-07T00:57:42;38.59;37.70;39.49;;
67320;Laerm;57665;51.436;5.978;2024-01-07T00:57:53;38.63;37.19;39.56;;
67320;Laerm;57665;51.436;5.978;2024-01-07T00:58:03;38.61;37.81;39.83;;
67320;Laerm;57665;51.436;5.978;2024-01-07T00:58:13;38.64;37.44;39.59;;
67320;Laerm;57665;51.436;5.978;2024-01-07T00:58:24;38.56;37.52;39.78;;
67320;Laerm;57665;51.436;5.978;2024-01-07T00:58:35;38.69;37.75;39.56;;
67320;Laerm;57665;51.436;5.978;2024-01-07T00:58:45;38.56;37.60;39.79;;
67320;Laerm;57665;51.436;5.978;2024-01-07T00:58:56;38.63;37.45;39.76;;
67320;Laerm;57665;51.436;5.978;2024-01-07T00:59:06;38.68;37.74;39.76;;
67320;Laerm;57665;51.436;5.978;2024-01-07T00:59:18;38.46;37.32;39.63;;
67320;Laerm;57665;51.436;5.978;2024-01-07T00:59:29;38.52;37.25;39.95;;
67320;Laerm;57665;51.436;5.978;2024-01-07T00:59:39;38.67;37.64;39.78;;
67320;Laerm;57665;51.436;5.978;2024-01-07T00:59:50;38.66;37.48;39.69;;
67320;Laerm;57665;51.436;5.978;2024-01-07T01:00:04;38.66;37.73;39.89;;
67320;Laerm;57665;51.436;5.978;2024-01-07T01:00:14;40.71;37.28;48.13;;
67320;Laerm;57665;51.436;5.978;2024-01-07T01:00:25;39.40;37.78;43.34;;
67320;Laerm;57665;51.436;5.978;2024-01-07T01:00:36;40.16;37.85;44.78;;
67320;Laerm;57665;51.436;5.978;2024-01-07T01:00:46;38.64;37.34;39.84;;
67320;Laerm;57665;51.436;5.978;2024-01-07T01:00:56;39.13;37.65;41.98;;
67320;Laerm;57665;51.436;5.978;2024-01-07T01:01:07;41.25;37.73;46.27;;